sensor_id;sensor_type;location;lat;lon;timestamp;pressure;altitude;pressure_sealevel;temperature
76347;BMP280;65171;48.378;10.010;2022-12-18T00:02:15;97095.81;;;-5.95
76347;BMP280;65171;48.378;10.010;2022-12-18T00:04:40;97104.56;;;-5.86
76347;BMP280;65171;48.378;10.010;2022-12-18T00:07:06;97115.13;;;-5.88
76347;BMP280;65171;48.378;10.010;2022-12-18T00:09:31;97097.25;;;-6.08
76347;BMP280;65171;48.378;10.010;2022-12-18T00:11:56;97106.81;;;-5.95
76347;BMP280;65171;48.378;10.010;2022-12-18T00:14:21;97119.81;;;-5.92
76347;BMP280;65171;48.378;10.010;2022-12-18T00:16:47;97121.06;;;-5.79
76347;BMP280;65171;48.378;10.010;2022-12-18T00:19:13;97116.75;;;-5.84
76347;BMP280;65171;48.378;10.010;2022-12-18T00:21:39;97108.78;;;-5.96
76347;BMP280;65171;48.378;10.010;2022-12-18T00:24:04;97121.38;;;-5.91
76347;BMP280;65171;48.378;10.010;2022-12-18T00:26:31;97128.06;;;-5.89
76347;BMP280;65171;48.378;10.010;2022-12-18T00:29:03;97123.75;;;-5.90
76347;BMP280;65171;48.378;10.010;2022-12-18T00:31:29;97098.09;;;-6.04
76347;BMP280;65171;48.378;10.010;2022-12-18T00:33:55;97110.72;;;-5.96
76347;BMP280;65171;48.378;10.010;2022-12-18T00:36:23;97121.03;;;-5.86
76347;BMP280;65171;48.378;10.010;2022-12-18T00:38:49;97124.97;;;-5.87
76347;BMP280;65171;48.378;10.010;2022-12-18T00:41:16;97131.19;;;-5.90
76347;BMP280;65171;48.378;10.010;2022-12-18T00:43:41;97124.44;;;-6.00
76347;BMP280;65171;48.378;10.010;2022-12-18T00:46:06;97127.22;;;-5.96
76347;BMP280;65171;48.378;10.010;2022-12-18T00:48:32;97142.84;;;-6.00
76347;BMP280;65171;48.378;10.010;2022-12-18T00:50:57;97145.75;;;-5.86
76347;BMP280;65171;48.378;10.010;2022-12-18T00:53:22;97146.84;;;-5.94
76347;BMP280;65171;48.378;10.010;2022-12-18T00:55:48;97147.31;;;-5.89
76347;BMP280;65171;48.378;10.010;2022-12-18T00:58:14;97137.06;;;-5.92
76347;BMP280;65171;48.378;10.010;2022-12-18T01:00:40;97141.63;;;-6.06
76347;BMP280;65171;48.378;10.010;2022-12-18T01:03:06;97151.59;;;-5.91
76347;BMP280;65171;48.378;10.010;2022-12-18T01:05:32;97144.53;;;-5.92
76347;BMP280;65171;48.378;10.010;2022-12-18T01:07:57;97132.31;;;-5.98
76347;BMP280;65171;48.378;10.010;2022-12-18T01:10:23;97146.50;;;-5.89
76347;BMP280;65171;48.378;10.010;2022-12-18T01:12:49;97144.44;;;-6.03
76347;BMP280;65171;48.378;10.010;2022-12-18T01:15:23;97133.78;;;-6.08
76347;BMP280;65171;48.378;10.010;2022-12-18T01:17:48;97149.13;;;-6.03
76347;BMP280;65171;48.378;10.010;2022-12-18T01:20:13;97151.50;;;-6.02
76347;BMP280;65171;48.378;10.010;2022-12-18T01:22:39;97152.41;;;-5.91
76347;BMP280;65171;48.378;10.010;2022-12-18T01:25:05;97148.41;;;-5.97
76347;BMP280;65171;48.378;10.010;2022-12-18T01:27:30;97159.41;;;-5.97
76347;BMP280;65171;48.378;10.010;2022-12-18T01:29:56;97125.41;;;-6.18
76347;BMP280;65171;48.378;10.010;2022-12-18T01:32:21;97159.81;;;-5.95
76347;BMP280;65171;48.378;10.010;2022-12-18T01:34:46;97174.69;;;-5.99
76347;BMP280;65171;48.378;10.010;2022-12-18T01:37:12;97165.53;;;-6.10
76347;BMP280;65171;48.378;10.010;2022-12-18T01:39:37;97184.13;;;-5.97
76347;BMP280;65171;48.378;10.010;2022-12-18T01:42:02;97181.69;;;-6.05
76347;BMP280;65171;48.378;10.010;2022-12-18T01:47:18;97160.84;;;-6.06
76347;BMP280;65171;48.378;10.010;2022-12-18T01:49:45;97179.56;;;-6.19
76347;BMP280;65171;48.378;10.010;2022-12-18T01:52:10;97174.09;;;-6.15
76347;BMP280;65171;48.378;10.010;2022-12-18T01:54:35;97186.66;;;-6.14
76347;BMP280;65171;48.378;10.010;2022-12-18T01:57:00;97189.44;;;-6.11
76347;BMP280;65171;48.378;10.010;2022-12-18T01:59:26;97185.19;;;-6.05
76347;BMP280;65171;48.378;10.010;2022-12-18T02:01:51;97187.09;;;-6.09
76347;BMP280;65171;48.378;10.010;2022-12-18T02:04:24;97184.41;;;-6.05
76347;BMP280;65171;48.378;10.010;2022-12-18T02:07:10;97176.53;;;-6.07
76347;BMP280;65171;48.378;10.010;2022-12-18T02:10:48;97187.22;;;-6.02
76347;BMP280;65171;48.378;10.010;2022-12-18T02:18:24;97176.50;;;-6.10
76347;BMP280;65171;48.378;10.010;2022-12-18T02:21:13;97165.25;;;-5.98
76347;BMP280;65171;48.378;10.010;2022-12-18T02:26:18;97156.97;;;-6.05
76347;BMP280;65171;48.378;10.010;2022-12-18T02:28:49;97148.25;;;-6.11
76347;BMP280;65171;48.378;10.010;2022-12-18T02:31:21;97161.56;;;-6.13
76347;BMP280;65171;48.378;10.010;2022-12-18T02:33:48;97161.94;;;-6.14
76347;BMP280;65171;48.378;10.010;2022-12-18T02:36:15;97164.72;;;-6.11
76347;BMP280;65171;48.378;10.010;2022-12-18T02:38:43;97168.59;;;-6.15
76347;BMP280;65171;48.378;10.010;2022-12-18T02:41:10;97168.34;;;-6.03
76347;BMP280;65171;48.378;10.010;2022-12-18T02:43:35;97157.63;;;-6.15
76347;BMP280;65171;48.378;10.010;2022-12-18T02:46:01;97169.47;;;-6.08
76347;BMP280;65171;48.378;10.010;2022-12-18T02:48:46;97163.94;;;-6.11
76347;BMP280;65171;48.378;10.010;2022-12-18T02:53:56;97167.03;;;-6.16
76347;BMP280;65171;48.378;10.010;2022-12-18T02:56:31;97172.53;;;-6.16
76347;BMP280;65171;48.378;10.010;2022-12-18T02:59:01;97191.78;;;-6.13
76347;BMP280;65171;48.378;10.010;2022-12-18T03:01:34;97183.84;;;-6.21
76347;BMP280;65171;48.378;10.010;2022-12-18T03:04:08;97194.16;;;-6.11
76347;BMP280;65171;48.378;10.010;2022-12-18T03:06:40;97170.16;;;-6.18
76347;BMP280;65171;48.378;10.010;2022-12-18T03:09:09;97162.69;;;-6.17
76347;BMP280;65171;48.378;10.010;2022-12-18T03:11:38;97156.97;;;-6.38
76347;BMP280;65171;48.378;10.010;2022-12-18T03:14:06;97176.00;;;-6.19
76347;BMP280;65171;48.378;10.010;2022-12-18T03:16:34;97176.53;;;-6.07
76347;BMP280;65171;48.378;10.010;2022-12-18T03:19:05;97184.00;;;-6.07
76347;BMP280;65171;48.378;10.010;2022-12-18T03:21:43;97183.19;;;-6.11
76347;BMP280;65171;48.378;10.010;2022-12-18T03:24:10;97194.56;;;-6.09
76347;BMP280;65171;48.378;10.010;2022-12-18T03:26:38;97190.66;;;-6.08
76347;BMP280;65171;48.378;10.010;2022-12-18T03:29:13;97184.34;;;-6.09
76347;BMP280;65171;48.378;10.010;2022-12-18T03:31:42;97181.19;;;-6.11
76347;BMP280;65171;48.378;10.010;2022-12-18T03:34:15;97171.78;;;-6.10
76347;BMP280;65171;48.378;10.010;2022-12-18T03:36:43;97181.13;;;-6.18
76347;BMP280;65171;48.378;10.010;2022-12-18T03:39:08;97166.09;;;-6.27
76347;BMP280;65171;48.378;10.010;2022-12-18T03:41:43;97186.28;;;-6.13
76347;BMP280;65171;48.378;10.010;2022-12-18T03:44:16;97184.19;;;-6.23
76347;BMP280;65171;48.378;10.010;2022-12-18T03:49:25;97188.28;;;-6.10
76347;BMP280;65171;48.378;10.010;2022-12-18T03:52:03;97178.00;;;-6.16
76347;BMP280;65171;48.378;10.010;2022-12-18T03:54:30;97172.97;;;-6.11
76347;BMP280;65171;48.378;10.010;2022-12-18T03:57:01;97181.16;;;-6.14
76347;BMP280;65171;48.378;10.010;2022-12-18T03:59:29;97187.16;;;-6.38
76347;BMP280;65171;48.378;10.010;2022-12-18T04:01:56;97202.22;;;-6.25
76347;BMP280;65171;48.378;10.010;2022-12-18T04:04:22;97188.72;;;-6.37
76347;BMP280;65171;48.378;10.010;2022-12-18T04:06:49;97194.34;;;-6.27
76347;BMP280;65171;48.378;10.010;2022-12-18T04:09:15;97181.78;;;-6.28
76347;BMP280;65171;48.378;10.010;2022-12-18T04:11:41;97195.56;;;-6.24
76347;BMP280;65171;48.378;10.010;2022-12-18T04:14:06;97192.34;;;-6.30
76347;BMP280;65171;48.378;10.010;2022-12-18T04:16:32;97189.19;;;-6.32
76347;BMP280;65171;48.378;10.010;2022-12-18T04:18:57;97200.75;;;-6.16
76347;BMP280;65171;48.378;10.010;2022-12-18T04:21:22;97200.22;;;-6.28
76347;BMP280;65171;48.378;10.010;2022-12-18T04:23:47;97205.28;;;-6.30
76347;BMP280;65171;48.378;10.010;2022-12-18T04:26:13;97211.88;;;-6.38
76347;BMP280;65171;48.378;10.010;2022-12-18T04:28:38;97203.53;;;-6.45
76347;BMP280;65171;48.378;10.010;2022-12-18T04:31:03;97184.06;;;-6.63
76347;BMP280;65171;48.378;10.010;2022-12-18T04:33:28;97213.81;;;-6.39
76347;BMP280;65171;48.378;10.010;2022-12-18T04:35:54;97195.22;;;-6.49
76347;BMP280;65171;48.378;10.010;2022-12-18T04:38:19;97205.63;;;-6.35
76347;BMP280;65171;48.378;10.010;2022-12-18T04:40:44;97200.41;;;-6.44
76347;BMP280;65171;48.378;10.010;2022-12-18T04:43:09;97209.94;;;-6.34
76347;BMP280;65171;48.378;10.010;2022-12-18T04:45:34;97217.75;;;-6.36
76347;BMP280;65171;48.378;10.010;2022-12-18T04:48:01;97219.09;;;-6.23
76347;BMP280;65171;48.378;10.010;2022-12-18T04:50:27;97206.69;;;-6.43
76347;BMP280;65171;48.378;10.010;2022-12-18T04:52:52;97212.91;;;-6.46
76347;BMP280;65171;48.378;10.010;2022-12-18T04:55:17;97208.59;;;-6.47
76347;BMP280;65171;48.378;10.010;2022-12-18T04:57:42;97221.25;;;-6.39
76347;BMP280;65171;48.378;10.010;2022-12-18T05:00:08;97205.94;;;-6.40
76347;BMP280;65171;48.378;10.010;2022-12-18T05:02:33;97219.25;;;-6.42
76347;BMP280;65171;48.378;10.010;2022-12-18T05:04:59;97233.97;;;-6.28
76347;BMP280;65171;48.378;10.010;2022-12-18T05:07:24;97218.13;;;-6.38
76347;BMP280;65171;48.378;10.010;2022-12-18T05:09:49;97239.09;;;-6.26
76347;BMP280;65171;48.378;10.010;2022-12-18T05:12:14;97233.59;;;-6.26
76347;BMP280;65171;48.378;10.010;2022-12-18T05:14:40;97235.31;;;-6.44
76347;BMP280;65171;48.378;10.010;2022-12-18T05:17:05;97231.91;;;-6.34
76347;BMP280;65171;48.378;10.010;2022-12-18T05:19:30;97229.91;;;-6.37
76347;BMP280;65171;48.378;10.010;2022-12-18T05:21:56;97219.25;;;-6.42
76347;BMP280;65171;48.378;10.010;2022-12-18T05:24:22;97227.53;;;-6.39
76347;BMP280;65171;48.378;10.010;2022-12-18T05:26:47;97241.63;;;-6.40
76347;BMP280;65171;48.378;10.010;2022-12-18T05:29:12;97237.25;;;-6.45
76347;BMP280;65171;48.378;10.010;2022-12-18T05:31:38;97233.34;;;-6.44
76347;BMP280;65171;48.378;10.010;2022-12-18T05:34:04;97231.34;;;-6.47
76347;BMP280;65171;48.378;10.010;2022-12-18T05:36:29;97241.91;;;-6.49
76347;BMP280;65171;48.378;10.010;2022-12-18T05:38:54;97246.03;;;-6.36
76347;BMP280;65171;48.378;10.010;2022-12-18T05:41:20;97250.66;;;-6.40
76347;BMP280;65171;48.378;10.010;2022-12-18T05:43:45;97246.47;;;-6.30
76347;BMP280;65171;48.378;10.010;2022-12-18T05:46:17;97247.97;;;-6.36
76347;BMP280;65171;48.378;10.010;2022-12-18T05:48:42;97243.63;;;-6.37
76347;BMP280;65171;48.378;10.010;2022-12-18T05:51:16;97251.03;;;-6.41
76347;BMP280;65171;48.378;10.010;2022-12-18T05:53:42;97246.47;;;-6.30
76347;BMP280;65171;48.378;10.010;2022-12-18T05:56:13;97235.81;;;-6.35
76347;BMP280;65171;48.378;10.010;2022-12-18T05:58:38;97219.84;;;-6.56
76347;BMP280;65171;48.378;10.010;2022-12-18T06:01:11;97250.72;;;-6.36
76347;BMP280;65171;48.378;10.010;2022-12-18T06:03:36;97249.22;;;-6.30
76347;BMP280;65171;48.378;10.010;2022-12-18T06:06:02;97244.97;;;-6.24
76347;BMP280;65171;48.378;10.010;2022-12-18T06:08:27;97249.03;;;-6.44
76347;BMP280;65171;48.378;10.010;2022-12-18T06:10:52;97259.78;;;-6.32
76347;BMP280;65171;48.378;10.010;2022-12-18T06:13:19;97254.25;;;-6.36
76347;BMP280;65171;48.378;10.010;2022-12-18T06:15:45;97246.47;;;-6.30
76347;BMP280;65171;48.378;10.010;2022-12-18T06:18:10;97240.41;;;-6.43
76347;BMP280;65171;48.378;10.010;2022-12-18T06:20:35;97251.59;;;-6.29
76347;BMP280;65171;48.378;10.010;2022-12-18T06:23:01;97255.47;;;-6.33
76347;BMP280;65171;48.378;10.010;2022-12-18T06:25:26;97258.22;;;-6.33
76347;BMP280;65171;48.378;10.010;2022-12-18T06:27:51;97252.72;;;-6.33
76347;BMP280;65171;48.378;10.010;2022-12-18T06:30:16;97260.97;;;-6.33
76347;BMP280;65171;48.378;10.010;2022-12-18T06:32:41;97255.50;;;-6.30
76347;BMP280;65171;48.378;10.010;2022-12-18T06:35:07;97257.09;;;-6.29
76347;BMP280;65171;48.378;10.010;2022-12-18T06:37:32;97268.97;;;-6.21
76347;BMP280;65171;48.378;10.010;2022-12-18T06:39:57;97271.28;;;-6.23
76347;BMP280;65171;48.378;10.010;2022-12-18T06:42:23;97266.50;;;-6.30
76347;BMP280;65171;48.378;10.010;2022-12-18T06:44:49;97256.19;;;-6.36
76347;BMP280;65171;48.378;10.010;2022-12-18T06:47:14;97268.91;;;-6.25
76347;BMP280;65171;48.378;10.010;2022-12-18T06:49:39;97266.44;;;-6.33
76347;BMP280;65171;48.378;10.010;2022-12-18T06:52:04;97273.28;;;-6.20
76347;BMP280;65171;48.378;10.010;2022-12-18T06:54:29;97264.56;;;-6.26
76347;BMP280;65171;48.378;10.010;2022-12-18T06:56:56;97269.06;;;-6.14
76347;BMP280;65171;48.378;10.010;2022-12-18T06:59:21;97278.47;;;-6.15
76347;BMP280;65171;48.378;10.010;2022-12-18T07:01:46;97274.88;;;-6.19
76347;BMP280;65171;48.378;10.010;2022-12-18T07:04:11;97285.81;;;-5.93
76347;BMP280;65171;48.378;10.010;2022-12-18T07:06:36;97275.75;;;-6.12
76347;BMP280;65171;48.378;10.010;2022-12-18T07:09:02;97277.06;;;-6.02
76347;BMP280;65171;48.378;10.010;2022-12-18T07:11:27;97275.47;;;-6.03
76347;BMP280;65171;48.378;10.010;2022-12-18T07:13:52;97263.19;;;-6.13
76347;BMP280;65171;48.378;10.010;2022-12-18T07:16:19;97273.69;;;-6.18
76347;BMP280;65171;48.378;10.010;2022-12-18T07:18:44;97280.22;;;-6.00
76347;BMP280;65171;48.378;10.010;2022-12-18T07:21:14;97295.97;;;-5.97
76347;BMP280;65171;48.378;10.010;2022-12-18T07:23:39;97296.41;;;-5.92
76347;BMP280;65171;48.378;10.010;2022-12-18T07:26:11;97293.63;;;-5.95
76347;BMP280;65171;48.378;10.010;2022-12-18T07:28:37;97305.13;;;-5.86
76347;BMP280;65171;48.378;10.010;2022-12-18T07:31:07;97309.13;;;-5.77
76347;BMP280;65171;48.378;10.010;2022-12-18T07:33:33;97293.78;;;-5.85
76347;BMP280;65171;48.378;10.010;2022-12-18T07:36:00;97296.09;;;-5.87
76347;BMP280;65171;48.378;10.010;2022-12-18T07:38:25;97304.81;;;-5.81
76347;BMP280;65171;48.378;10.010;2022-12-18T07:40:50;97310.72;;;-5.76
76347;BMP280;65171;48.378;10.010;2022-12-18T07:43:16;97325.31;;;-5.72
76347;BMP280;65171;48.378;10.010;2022-12-18T07:45:42;97325.75;;;-5.66
76347;BMP280;65171;48.378;10.010;2022-12-18T07:48:07;97326.56;;;-5.66
76347;BMP280;65171;48.378;10.010;2022-12-18T07:50:32;97335.34;;;-5.53
76347;BMP280;65171;48.378;10.010;2022-12-18T07:52:57;97334.22;;;-5.49
76347;BMP280;65171;48.378;10.010;2022-12-18T07:55:23;97328.34;;;-5.47
76347;BMP280;65171;48.378;10.010;2022-12-18T07:57:48;97339.09;;;-5.35
76347;BMP280;65171;48.378;10.010;2022-12-18T08:00:13;97328.38;;;-5.44
76347;BMP280;65171;48.378;10.010;2022-12-18T08:02:39;97331.09;;;-5.47
76347;BMP280;65171;48.378;10.010;2022-12-18T08:05:04;97324.75;;;-5.51
76347;BMP280;65171;48.378;10.010;2022-12-18T08:07:30;97335.84;;;-5.44
76347;BMP280;65171;48.378;10.010;2022-12-18T08:09:55;97337.88;;;-5.38
76347;BMP280;65171;48.378;10.010;2022-12-18T08:12:20;97336.41;;;-5.28
76347;BMP280;65171;48.378;10.010;2022-12-18T08:14:45;97333.72;;;-5.21
76347;BMP280;65171;48.378;10.010;2022-12-18T08:17:10;97332.81;;;-5.32
76347;BMP280;65171;48.378;10.010;2022-12-18T08:19:35;97324.28;;;-5.24
76347;BMP280;65171;48.378;10.010;2022-12-18T08:22:01;97329.09;;;-5.14
76347;BMP280;65171;48.378;10.010;2022-12-18T08:24:26;97326.03;;;-5.05
76347;BMP280;65171;48.378;10.010;2022-12-18T08:26:51;97317.38;;;-5.07
76347;BMP280;65171;48.378;10.010;2022-12-18T08:29:16;97318.13;;;-5.10
76347;BMP280;65171;48.378;10.010;2022-12-18T08:31:41;97320.88;;;-5.10
76347;BMP280;65171;48.378;10.010;2022-12-18T08:34:07;97333.94;;;-5.04
76347;BMP280;65171;48.378;10.010;2022-12-18T08:36:32;97332.44;;;-4.94
76347;BMP280;65171;48.378;10.010;2022-12-18T08:38:58;97337.97;;;-4.91
76347;BMP280;65171;48.378;10.010;2022-12-18T08:41:23;97337.22;;;-4.91
76347;BMP280;65171;48.378;10.010;2022-12-18T08:43:48;97326.31;;;-4.77
76347;BMP280;65171;48.378;10.010;2022-12-18T08:46:15;97312.13;;;-4.83
76347;BMP280;65171;48.378;10.010;2022-12-18T08:48:41;97322.38;;;-4.76
76347;BMP280;65171;48.378;10.010;2022-12-18T08:51:06;97324.06;;;-4.65
76347;BMP280;65171;48.378;10.010;2022-12-18T08:53:31;97329.56;;;-4.68
76347;BMP280;65171;48.378;10.010;2022-12-18T08:55:57;97336.81;;;-4.46
76347;BMP280;65171;48.378;10.010;2022-12-18T08:58:22;97326.59;;;-4.42
76347;BMP280;65171;48.378;10.010;2022-12-18T09:00:47;97332.81;;;-4.52
76347;BMP280;65171;48.378;10.010;2022-12-18T09:03:17;97325.81;;;-4.46
76347;BMP280;65171;48.378;10.010;2022-12-18T09:05:43;97336.88;;;-4.39
76347;BMP280;65171;48.378;10.010;2022-12-18T09:08:10;97321.47;;;-4.44
76347;BMP280;65171;48.378;10.010;2022-12-18T09:10:42;97329.81;;;-4.33
76347;BMP280;65171;48.378;10.010;2022-12-18T09:13:07;97334.19;;;-4.25
76347;BMP280;65171;48.378;10.010;2022-12-18T09:15:32;97332.25;;;-4.25
76347;BMP280;65171;48.378;10.010;2022-12-18T09:17:58;97329.53;;;-4.18
76347;BMP280;65171;48.378;10.010;2022-12-18T09:20:23;97337.81;;;-4.14
76347;BMP280;65171;48.378;10.010;2022-12-18T09:22:48;97332.97;;;-4.31
76347;BMP280;65171;48.378;10.010;2022-12-18T09:25:13;97339.03;;;-4.12
76347;BMP280;65171;48.378;10.010;2022-12-18T09:27:38;97344.22;;;-4.00
76347;BMP280;65171;48.378;10.010;2022-12-18T09:30:04;97332.03;;;-3.95
76347;BMP280;65171;48.378;10.010;2022-12-18T09:32:29;97323.75;;;-3.95
76347;BMP280;65171;48.378;10.010;2022-12-18T09:34:55;97321.00;;;-3.95
76347;BMP280;65171;48.378;10.010;2022-12-18T09:37:20;97319.53;;;-3.82
76347;BMP280;65171;48.378;10.010;2022-12-18T09:39:45;97312.03;;;-3.82
76347;BMP280;65171;48.378;10.010;2022-12-18T09:42:18;97317.13;;;-3.87
76347;BMP280;65171;48.378;10.010;2022-12-18T09:44:50;97321.94;;;-3.70
76347;BMP280;65171;48.378;10.010;2022-12-18T09:49:53;97310.94;;;-3.67
76347;BMP280;65171;48.378;10.010;2022-12-18T09:52:43;97323.13;;;-3.71
76347;BMP280;65171;48.378;10.010;2022-12-18T09:57:57;97318.00;;;-3.69
76347;BMP280;65171;48.378;10.010;2022-12-18T10:00:25;97333.03;;;-3.53
76347;BMP280;65171;48.378;10.010;2022-12-18T10:03:00;97325.56;;;-3.52
76347;BMP280;65171;48.378;10.010;2022-12-18T10:05:37;97330.25;;;-3.56
76347;BMP280;65171;48.378;10.010;2022-12-18T10:11:00;97320.09;;;-3.38
76347;BMP280;65171;48.378;10.010;2022-12-18T10:13:46;97310.66;;;-3.30
76347;BMP280;65171;48.378;10.010;2022-12-18T10:21:21;97290.97;;;-3.32
76347;BMP280;65171;48.378;10.010;2022-12-18T10:26:35;97290.16;;;-3.29
76347;BMP280;65171;48.378;10.010;2022-12-18T10:29:01;97285.47;;;-3.25
76347;BMP280;65171;48.378;10.010;2022-12-18T10:31:26;97289.34;;;-3.47
76347;BMP280;65171;48.378;10.010;2022-12-18T10:33:53;97269.66;;;-3.42
76347;BMP280;65171;48.378;10.010;2022-12-18T10:36:19;97288.56;;;-3.41
76347;BMP280;65171;48.378;10.010;2022-12-18T10:38:45;97292.50;;;-3.38
76347;BMP280;65171;48.378;10.010;2022-12-18T10:43:44;97287.75;;;-3.52
76347;BMP280;65171;48.378;10.010;2022-12-18T10:51:24;97300.44;;;-3.26
76347;BMP280;65171;48.378;10.010;2022-12-18T10:54:12;97309.56;;;-3.08
76347;BMP280;65171;48.378;10.010;2022-12-18T10:56:39;97302.03;;;-3.15
76347;BMP280;65171;48.378;10.010;2022-12-18T10:59:09;97291.78;;;-3.18
76347;BMP280;65171;48.378;10.010;2022-12-18T11:01:57;97299.66;;;-3.13
76347;BMP280;65171;48.378;10.010;2022-12-18T11:04:25;97305.59;;;-3.07
76347;BMP280;65171;48.378;10.010;2022-12-18T11:07:03;97311.50;;;-3.05
76347;BMP280;65171;48.378;10.010;2022-12-18T11:09:39;97315.09;;;-3.01
76347;BMP280;65171;48.378;10.010;2022-12-18T11:12:15;97315.47;;;-2.99
76347;BMP280;65171;48.378;10.010;2022-12-18T11:14:52;97325.69;;;-3.21
76347;BMP280;65171;48.378;10.010;2022-12-18T11:17:29;97309.53;;;-3.15
76347;BMP280;65171;48.378;10.010;2022-12-18T11:19:58;97310.75;;;-2.95
76347;BMP280;65171;48.378;10.010;2022-12-18T11:22:26;97306.41;;;-2.93
76347;BMP280;65171;48.378;10.010;2022-12-18T11:25:03;97316.28;;;-2.95
76347;BMP280;65171;48.378;10.010;2022-12-18T11:27:35;97309.13;;;-3.17
76347;BMP280;65171;48.378;10.010;2022-12-18T11:33:05;97301.28;;;-3.01
76347;BMP280;65171;48.378;10.010;2022-12-18T11:35:55;97306.81;;;-2.98
76347;BMP280;65171;48.378;10.010;2022-12-18T11:38:33;97298.91;;;-3.10
76347;BMP280;65171;48.378;10.010;2022-12-18T11:43:58;97290.25;;;-2.87
76347;BMP280;65171;48.378;10.010;2022-12-18T11:46:36;97299.75;;;-2.78
76347;BMP280;65171;48.378;10.010;2022-12-18T11:52:15;97287.91;;;-2.89
76347;BMP280;65171;48.378;10.010;2022-12-18T11:54:38;97287.91;;;-2.82
76347;BMP280;65171;48.378;10.010;2022-12-18T11:59:53;97271.31;;;-2.89
76347;BMP280;65171;48.378;10.010;2022-12-18T12:02:47;97265.03;;;-2.72
76347;BMP280;65171;48.378;10.010;2022-12-18T12:07:55;97264.63;;;-2.84
76347;BMP280;65171;48.378;10.010;2022-12-18T12:16:25;97241.34;;;-2.80
76347;BMP280;65171;48.378;10.010;2022-12-18T12:19:15;97249.63;;;-2.87
76347;BMP280;65171;48.378;10.010;2022-12-18T12:22:07;97248.03;;;-3.02
76347;BMP280;65171;48.378;10.010;2022-12-18T12:27:25;97234.25;;;-2.95
76347;BMP280;65171;48.378;10.010;2022-12-18T12:35:11;97245.63;;;-3.28
76347;BMP280;65171;48.378;10.010;2022-12-18T12:40:36;97235.00;;;-3.22
76347;BMP280;65171;48.378;10.010;2022-12-18T12:43:21;97237.38;;;-3.17
76347;BMP280;65171;48.378;10.010;2022-12-18T12:48:31;97232.97;;;-3.43
76347;BMP280;65171;48.378;10.010;2022-12-18T12:51:00;97229.03;;;-3.45
76347;BMP280;65171;48.378;10.010;2022-12-18T12:53:31;97227.06;;;-3.55
76347;BMP280;65171;48.378;10.010;2022-12-18T12:55:58;97239.69;;;-3.37
76347;BMP280;65171;48.378;10.010;2022-12-18T12:58:31;97241.31;;;-3.29
76347;BMP280;65171;48.378;10.010;2022-12-18T13:01:29;97249.16;;;-3.27
76347;BMP280;65171;48.378;10.010;2022-12-18T13:04:36;97236.97;;;-3.19
76347;BMP280;65171;48.378;10.010;2022-12-18T13:10:19;97236.19;;;-3.27
76347;BMP280;65171;48.378;10.010;2022-12-18T13:15:45;97233.41;;;-3.37
76347;BMP280;65171;48.378;10.010;2022-12-18T13:18:15;97238.56;;;-3.18
76347;BMP280;65171;48.378;10.010;2022-12-18T13:20:46;97227.91;;;-3.23
76347;BMP280;65171;48.378;10.010;2022-12-18T13:36:44;97245.53;;;-3.66
76347;BMP280;65171;48.378;10.010;2022-12-18T13:41:45;97242.00;;;-3.60
76347;BMP280;65171;48.378;10.010;2022-12-18T13:46:50;97257.34;;;-3.69
76347;BMP280;65171;48.378;10.010;2022-12-18T13:51:47;97243.63;;;-3.55
76347;BMP280;65171;48.378;10.010;2022-12-18T13:56:47;97244.34;;;-3.72
76347;BMP280;65171;48.378;10.010;2022-12-18T13:59:18;97240.78;;;-3.73
76347;BMP280;65171;48.378;10.010;2022-12-18T14:04:30;97239.22;;;-3.63
76347;BMP280;65171;48.378;10.010;2022-12-18T14:07:02;97236.84;;;-3.72
76347;BMP280;65171;48.378;10.010;2022-12-18T14:09:31;97240.34;;;-3.78
76347;BMP280;65171;48.378;10.010;2022-12-18T14:11:59;97245.09;;;-3.82
76347;BMP280;65171;48.378;10.010;2022-12-18T14:14:25;97245.84;;;-3.82
76347;BMP280;65171;48.378;10.010;2022-12-18T14:16:50;97254.97;;;-3.67
76347;BMP280;65171;48.378;10.010;2022-12-18T14:19:17;97245.91;;;-3.75
76347;BMP280;65171;48.378;10.010;2022-12-18T14:21:47;97249.91;;;-3.58
76347;BMP280;65171;48.378;10.010;2022-12-18T14:24:18;97237.59;;;-3.78
76347;BMP280;65171;48.378;10.010;2022-12-18T14:26:44;97242.81;;;-3.56
76347;BMP280;65171;48.378;10.010;2022-12-18T14:29:30;97242.00;;;-3.63
76347;BMP280;65171;48.378;10.010;2022-12-18T14:32:13;97227.72;;;-3.90
76347;BMP280;65171;48.378;10.010;2022-12-18T14:34:39;97242.72;;;-3.77
76347;BMP280;65171;48.378;10.010;2022-12-18T14:37:05;97241.84;;;-4.02
76347;BMP280;65171;48.378;10.010;2022-12-18T14:39:31;97252.53;;;-3.86
76347;BMP280;65171;48.378;10.010;2022-12-18T14:41:56;97268.59;;;-4.02
76347;BMP280;65171;48.378;10.010;2022-12-18T14:44:21;97252.13;;;-3.92
76347;BMP280;65171;48.378;10.010;2022-12-18T14:46:48;97243.00;;;-4.06
76347;BMP280;65171;48.378;10.010;2022-12-18T14:49:31;97253.34;;;-3.86
76347;BMP280;65171;48.378;10.010;2022-12-18T14:52:03;97248.56;;;-3.92
76347;BMP280;65171;48.378;10.010;2022-12-18T14:54:29;97239.44;;;-4.14
76347;BMP280;65171;48.378;10.010;2022-12-18T14:57:21;97268.22;;;-4.04
76347;BMP280;65171;48.378;10.010;2022-12-18T14:59:47;97254.41;;;-4.11
76347;BMP280;65171;48.378;10.010;2022-12-18T15:02:23;97265.38;;;-4.18
76347;BMP280;65171;48.378;10.010;2022-12-18T15:05:28;97265.00;;;-4.13
76347;BMP280;65171;48.378;10.010;2022-12-18T15:07:59;97250.03;;;-4.12
76347;BMP280;65171;48.378;10.010;2022-12-18T15:10:29;97259.03;;;-4.26
76347;BMP280;65171;48.378;10.010;2022-12-18T15:18:02;97273.69;;;-4.11
76347;BMP280;65171;48.378;10.010;2022-12-18T15:20:31;97263.28;;;-4.39
76347;BMP280;65171;48.378;10.010;2022-12-18T15:22:57;97276.72;;;-4.30
76347;BMP280;65171;48.378;10.010;2022-12-18T15:25:36;97282.63;;;-4.28
76347;BMP280;65171;48.378;10.010;2022-12-18T15:28:02;97274.84;;;-4.12
76347;BMP280;65171;48.378;10.010;2022-12-18T15:30:27;97275.66;;;-4.08
76347;BMP280;65171;48.378;10.010;2022-12-18T15:33:16;97280.81;;;-4.03
76347;BMP280;65171;48.378;10.010;2022-12-18T15:35:41;97270.84;;;-4.25
76347;BMP280;65171;48.378;10.010;2022-12-18T15:38:06;97265.38;;;-4.18
76347;BMP280;65171;48.378;10.010;2022-12-18T15:40:32;97260.59;;;-4.28
76347;BMP280;65171;48.378;10.010;2022-12-18T15:42:57;97261.41;;;-4.24
76347;BMP280;65171;48.378;10.010;2022-12-18T15:45:23;97262.56;;;-4.29
76347;BMP280;65171;48.378;10.010;2022-12-18T15:47:48;97261.63;;;-4.50
76347;BMP280;65171;48.378;10.010;2022-12-18T15:50:13;97263.59;;;-4.51
76347;BMP280;65171;48.378;10.010;2022-12-18T15:52:43;97259.75;;;-4.36
76347;BMP280;65171;48.378;10.010;2022-12-18T15:55:12;97265.50;;;-4.58
76347;BMP280;65171;48.378;10.010;2022-12-18T15:57:37;97259.63;;;-4.53